createdAt,value
2022-10-30T00:05:30.657Z,23.27
2022-10-30T00:13:38.852Z,24.33
2022-10-30T00:21:44.147Z,23.58
2022-10-30T00:29:52.149Z,22.15
2022-10-30T00:37:57.676Z,23.27
2022-10-30T00:46:10.551Z,19.67
2022-10-30T00:54:18.535Z,22.23
2022-10-30T01:02:26.789Z,20.77
2022-10-30T01:10:32.231Z,21.50
2022-10-30T01:18:49.825Z,19.73
2022-10-30T01:27:07.941Z,23.75
2022-10-30T01:35:22.082Z,29.60
2022-10-30T01:43:27.655Z,23.95
2022-10-30T01:51:48.098Z,23.92
2022-10-30T01:59:57.304Z,19.30
2022-10-30T02:08:05.464Z,19.52
2022-10-30T02:16:13.717Z,18.77
2022-10-30T02:24:23.908Z,17.83
2022-10-30T02:32:29.301Z,17.95
2022-10-30T02:40:37.255Z,16.73
2022-10-30T02:48:42.572Z,17.42
2022-10-30T02:56:50.588Z,19.05
2022-10-30T03:04:55.939Z,16.73
2022-10-30T03:13:04.646Z,19.35
2022-10-30T03:21:14.251Z,20.70
2022-10-30T03:29:22.156Z,22.40
2022-10-30T03:37:28.027Z,22.17
2022-10-30T03:45:36.787Z,17.02
2022-10-30T03:53:44.042Z,13.40
2022-10-30T04:01:52.146Z,13.05
2022-10-30T04:09:57.732Z,16.63
2022-10-30T04:18:06.556Z,20.40
2022-10-30T04:26:15.259Z,19.90
2022-10-30T04:34:26.493Z,14.70
2022-10-30T04:42:37.057Z,18.33
2022-10-30T04:50:45.787Z,17.60
2022-10-30T04:58:57.914Z,19.17
2022-10-30T05:07:07.224Z,18.98
2022-10-30T05:15:13.112Z,17.60
2022-10-30T05:23:21.571Z,17.67
2022-10-30T05:31:26.969Z,18.30
2022-10-30T05:39:53.771Z,17.60
2022-10-30T05:48:06.034Z,15.60
2022-10-30T05:56:21.365Z,15.40
2022-10-30T06:04:27.839Z,15.38
2022-10-30T06:12:36.583Z,12.75
2022-10-30T06:21:02.112Z,18.05
2022-10-30T06:29:39.356Z,18.25
2022-10-30T06:37:49.379Z,17.95
2022-10-30T06:45:57.745Z,20.48
2022-10-30T06:54:03.423Z,18.63
2022-10-30T07:02:20.412Z,21.27
2022-10-30T07:10:30.678Z,17.00
2022-10-30T07:18:59.372Z,18.30
2022-10-30T07:27:07.457Z,18.52
2022-10-30T07:35:18.743Z,11.05
2022-10-30T07:43:50.460Z,12.73
2022-10-30T07:52:24.309Z,12.75
2022-10-30T08:00:30.947Z,14.95
2022-10-30T08:08:47.984Z,16.02
2022-10-30T08:17:05.311Z,15.55
2022-10-30T08:25:13.639Z,12.75
2022-10-30T08:33:20.375Z,12.07
2022-10-30T08:41:37.051Z,15.18
2022-10-30T08:49:43.214Z,11.98
2022-10-30T08:57:52.007Z,9.43
2022-10-30T09:05:57.767Z,10.52
2022-10-30T09:14:24.240Z,9.77
2022-10-30T09:22:29.575Z,11.73
2022-10-30T09:30:37.504Z,9.23
2022-10-30T09:38:43.843Z,8.98
2022-10-30T09:47:03.511Z,9.35
2022-10-30T09:55:21.557Z,8.60
2022-10-30T10:03:44.785Z,8.65
2022-10-30T10:12:12.688Z,6.95
2022-10-30T10:20:30.827Z,8.73
2022-10-30T10:28:52.516Z,6.93
2022-10-30T10:37:13.316Z,10.00
2022-10-30T10:45:32.893Z,8.65
2022-10-30T10:53:47.473Z,11.07
2022-10-30T11:01:59.231Z,9.15
2022-10-30T11:10:16.278Z,9.50
2022-10-30T11:18:21.949Z,7.65
2022-10-30T11:26:36.080Z,11.93
2022-10-30T11:34:41.597Z,8.95
2022-10-30T11:42:52.580Z,6.93
2022-10-30T11:51:01.867Z,14.70
2022-10-30T11:59:09.949Z,13.40
2022-10-30T12:07:27.345Z,7.07
2022-10-30T12:15:38.899Z,13.13
2022-10-30T12:23:44.359Z,10.93
2022-10-30T12:31:57.631Z,8.05
2022-10-30T12:40:07.159Z,7.38
2022-10-30T12:48:23.598Z,6.72
2022-10-30T12:56:33.273Z,11.25
2022-10-30T13:04:45.166Z,9.27
2022-10-30T13:12:54.773Z,6.65
2022-10-30T13:21:10.767Z,11.20
2022-10-30T13:29:23.878Z,13.43
2022-10-30T13:45:58.169Z,8.68
2022-10-30T13:54:13.296Z,8.95
2022-10-30T14:02:31.966Z,8.70
2022-10-30T14:10:59.369Z,9.00
2022-10-30T14:19:07.329Z,9.32
2022-10-30T14:27:24.188Z,8.02
2022-10-30T14:35:51.279Z,8.15
2022-10-30T14:44:09.307Z,9.98
2022-10-30T14:52:25.842Z,11.02
2022-10-30T15:00:47.381Z,14.00
2022-10-30T15:09:05.944Z,20.73
2022-10-30T15:17:25.643Z,17.98
2022-10-30T15:25:36.751Z,14.07
2022-10-30T15:33:44.729Z,16.77
2022-10-30T15:41:53.936Z,18.52
2022-10-30T15:50:02.998Z,24.23
2022-10-30T15:58:08.666Z,22.60
2022-10-30T16:06:23.448Z,24.17
2022-10-30T16:14:30.721Z,28.00
2022-10-30T16:22:42.136Z,22.45
2022-10-30T16:30:48.785Z,22.85
2022-10-30T16:38:58.649Z,27.92
2022-10-30T16:47:08.792Z,34.30
2022-10-30T16:55:23.516Z,26.23
2022-10-30T17:03:30.781Z,32.17
2022-10-30T17:11:43.801Z,25.30
2022-10-30T17:19:51.428Z,18.65
2022-10-30T17:27:59.625Z,24.33
2022-10-30T17:36:05.257Z,25.85
2022-10-30T17:44:21.557Z,27.73
2022-10-30T17:52:28.222Z,28.75
2022-10-30T18:00:36.102Z,32.03
2022-10-30T18:08:43.913Z,22.90
2022-10-30T18:16:55.621Z,28.42
2022-10-30T18:25:01.195Z,30.40
2022-10-30T18:33:09.054Z,32.88
2022-10-30T18:41:18.429Z,35.63
2022-10-30T18:49:29.016Z,38.67
2022-10-30T18:57:34.327Z,40.67
2022-10-30T19:05:45.592Z,41.65
2022-10-30T19:13:51.204Z,44.85
2022-10-30T19:21:59.144Z,44.28
2022-10-30T19:30:04.432Z,45.45
2022-10-30T19:38:13.492Z,48.83
2022-10-30T19:46:18.826Z,43.58
2022-10-30T19:54:26.716Z,39.10
2022-10-30T20:02:32.022Z,39.08
2022-10-30T20:10:43.888Z,37.15
2022-10-30T20:18:50.388Z,41.17
2022-10-30T20:26:59.507Z,35.50
2022-10-30T20:35:08.760Z,37.75
2022-10-30T20:43:21.388Z,36.80
2022-10-30T20:51:26.740Z,35.58
2022-10-30T20:59:34.583Z,37.70
2022-10-30T21:07:39.934Z,35.88
2022-10-30T21:15:47.881Z,32.55
2022-10-30T21:23:58.450Z,35.08
2022-10-30T21:32:09.474Z,38.42
2022-10-30T21:40:16.165Z,40.42
2022-10-30T21:48:24.005Z,27.80
2022-10-30T21:56:31.441Z,28.85
2022-10-30T22:04:40.273Z,29.65
2022-10-30T22:12:45.572Z,28.98
2022-10-30T22:20:53.538Z,30.85
2022-10-30T22:29:01.178Z,29.08
2022-10-30T22:37:09.086Z,36.45
2022-10-30T22:45:36.897Z,32.15
2022-10-30T22:53:46.007Z,35.08
2022-10-30T23:11:00.309Z,39.33
2022-10-30T23:19:05.802Z,36.15
2022-10-30T23:27:13.642Z,37.17
2022-10-30T23:35:18.946Z,32.42
2022-10-30T23:43:26.936Z,30.63
2022-10-30T23:51:32.663Z,32.15
2022-10-30T23:59:40.528Z,30.65
